Time;durP1;ratioP1;P1;durP2;ratioP2;P2;SDS_P1;SDS_P2;PMS_P1;PMS_P2;Temp;Humidity;BMP_temperature;BMP_pressure;BME280_temperature;BME280_humidity;BME280_pressure;Samples;Min_cycle;Max_cycle;Signal;HPM_P1;HPM_P2
2021/08/26 00:06:25;;;;;;;6.25;4.18;;;;;;;15.00;66.87;97180.56;4972852;28;20038;-75
2021/08/26 00:08:53;;;;;;;4.65;3.95;;;;;;;14.90;67.42;97181.41;4955239;28;20307;-75
2021/08/26 00:11:22;;;;;;;6.05;4.72;;;;;;;14.84;67.20;97181.69;4960964;28;20536;-75
2021/08/26 00:13:50;;;;;;;8.82;4.25;;;;;;;14.76;67.76;97175.19;4936700;28;20062;-75
2021/08/26 00:16:20;;;;;;;6.60;4.22;;;;;;;14.65;67.43;97174.47;4936454;28;20035;-75
2021/08/26 00:18:45;;;;;;;5.28;4.18;;;;;;;14.69;67.49;97174.72;4952511;28;20082;-75
2021/08/26 00:21:11;;;;;;;6.57;4.50;;;;;;;14.64;67.58;97177.38;4934897;28;20042;-75
2021/08/26 00:23:36;;;;;;;6.25;4.10;;;;;;;14.56;67.67;97170.81;4937316;28;20069;-76
2021/08/26 00:26:02;;;;;;;6.18;4.40;;;;;;;14.58;67.45;97168.69;4951709;28;20031;-76
2021/08/26 00:28:27;;;;;;;5.65;4.20;;;;;;;14.55;67.59;97172.66;4936300;28;20586;-76
2021/08/26 00:30:53;;;;;;;6.95;4.30;;;;;;;14.59;67.52;97165.06;4951569;28;20031;-76
2021/08/26 00:33:18;;;;;;;6.80;4.70;;;;;;;14.59;66.73;97159.84;4936111;28;20027;-76
2021/08/26 00:35:43;;;;;;;6.05;4.47;;;;;;;14.61;67.04;97165.56;4955000;28;20086;-76
2021/08/26 00:38:09;;;;;;;6.10;4.13;;;;;;;14.67;66.82;97161.09;4923730;28;20081;-76
2021/08/26 00:40:34;;;;;;;5.93;3.95;;;;;;;14.76;66.38;97164.72;4940089;28;20035;-75
2021/08/26 00:43:00;;;;;;;7.90;4.70;;;;;;;14.71;66.83;97157.66;4956130;28;20105;-76
2021/08/26 00:45:26;;;;;;;5.90;4.47;;;;;;;14.61;67.19;97157.72;4940082;28;20034;-76
2021/08/26 00:47:51;;;;;;;6.65;4.25;;;;;;;14.60;67.44;97161.41;4939866;28;20035;-76
2021/08/26 00:50:16;;;;;;;5.88;3.40;;;;;;;14.57;66.88;97157.44;4941092;28;20131;-76
2021/08/26 00:52:42;;;;;;;7.63;4.82;;;;;;;14.46;67.00;97149.91;4974679;28;20022;-76
2021/08/26 00:55:08;;;;;;;6.43;4.28;;;;;;;14.36;67.04;97143.66;4974551;28;20066;-76
2021/08/26 00:57:37;;;;;;;4.95;4.07;;;;;;;14.24;67.61;97140.59;4957529;28;20031;-76
2021/08/26 01:00:08;;;;;;;6.97;4.68;;;;;;;14.14;68.06;97138.00;4956720;28;20027;-76
2021/08/26 01:02:40;;;;;;;5.18;4.30;;;;;;;13.96;68.34;97136.75;4941450;28;20545;-76
2021/08/26 01:05:18;;;;;;;5.80;4.18;;;;;;;13.99;68.77;97142.22;4941449;28;20039;-75
2021/08/26 01:07:53;;;;;;;6.10;4.20;;;;;;;14.01;68.01;97140.13;4920974;29;20423;-76
2021/08/26 01:10:19;;;;;;;5.85;4.35;;;;;;;14.29;67.21;97137.94;4922337;29;20042;-76
2021/08/26 01:12:47;;;;;;;6.13;4.45;;;;;;;14.09;67.85;97135.41;4921882;29;20027;-76
2021/08/26 01:15:12;;;;;;;6.60;4.05;;;;;;;14.11;68.06;97136.69;4938004;29;20421;-75
2021/08/26 01:17:38;;;;;;;5.35;4.15;;;;;;;14.16;68.18;97128.06;4954854;29;20102;-76
2021/08/26 01:20:05;;;;;;;5.80;4.22;;;;;;;14.10;67.91;97129.09;4934765;28;20114;-75
2021/08/26 01:22:32;;;;;;;6.57;4.25;;;;;;;14.14;68.12;97130.94;4957116;28;20560;-76
2021/08/26 01:25:09;;;;;;;7.90;5.22;;;;;;;14.04;67.91;97125.72;4957365;28;20069;-76
2021/08/26 01:27:39;;;;;;;6.45;4.53;;;;;;;14.01;68.29;97119.19;4939629;28;20039;-76
2021/08/26 01:30:06;;;;;;;6.65;4.60;;;;;;;14.11;68.25;97122.84;4924918;28;20023;-76
2021/08/26 01:32:32;;;;;;;6.63;4.30;;;;;;;14.12;67.98;97129.63;4940997;28;20390;-75
2021/08/26 01:34:57;;;;;;;8.20;4.72;;;;;;;14.10;67.94;97126.50;4924874;28;20170;-76
2021/08/26 01:37:23;;;;;;;7.13;4.28;;;;;;;14.06;68.29;97126.25;4941205;28;20037;-76
2021/08/26 01:39:50;;;;;;;6.47;5.03;;;;;;;13.99;68.50;97120.50;4956841;28;20070;-76
2021/08/26 01:42:16;;;;;;;5.45;4.07;;;;;;;13.97;68.57;97130.47;4957006;28;20117;-76
2021/08/26 01:44:42;;;;;;;7.10;5.03;;;;;;;13.89;68.76;97129.19;4956876;28;20037;-76
2021/08/26 01:47:10;;;;;;;6.53;4.88;;;;;;;13.84;68.67;97129.19;4941009;28;20540;-76
2021/08/26 01:49:36;;;;;;;7.72;4.60;;;;;;;13.87;68.81;97126.03;4956672;28;20117;-76
2021/08/26 01:52:02;;;;;;;6.13;4.35;;;;;;;13.94;69.05;97121.31;4956487;28;20118;-76
2021/08/26 01:54:29;;;;;;;6.03;4.22;;;;;;;14.01;69.14;97124.41;4940613;28;20043;-75
2021/08/26 01:56:55;;;;;;;5.97;4.50;;;;;;;14.03;68.98;97122.34;4956950;28;20039;-76
2021/08/26 01:59:21;;;;;;;7.05;4.45;;;;;;;14.04;68.87;97104.78;4940883;28;20031;-76
2021/08/26 02:01:46;;;;;;;7.95;5.40;;;;;;;14.18;69.06;97107.59;4924487;28;20622;-76
2021/08/26 02:04:11;;;;;;;6.88;5.45;;;;;;;14.41;68.56;97106.19;4940373;28;20185;-76
2021/08/26 02:06:36;;;;;;;7.93;5.88;;;;;;;14.52;67.67;97096.44;4973798;28;20069;-76
2021/08/26 02:09:02;;;;;;;6.90;5.00;;;;;;;14.65;67.17;97089.81;4973579;28;20109;-76
2021/08/26 02:11:27;;;;;;;7.32;5.40;;;;;;;14.64;65.96;97094.28;4956341;28;20039;-76
2021/08/26 02:13:52;;;;;;;7.38;6.00;;;;;;;14.66;66.73;97086.16;4940326;28;20131;-76
2021/08/26 02:16:18;;;;;;;7.63;4.85;;;;;;;14.79;66.02;97078.47;4940117;28;20476;-76
2021/08/26 02:18:44;;;;;;;5.55;4.45;;;;;;;14.81;65.70;97082.66;4956330;28;20046;-76
2021/08/26 02:21:10;;;;;;;6.28;4.60;;;;;;;14.81;66.20;97080.03;4939992;28;20434;-76
2021/08/26 02:23:36;;;;;;;5.30;4.30;;;;;;;14.72;65.98;97075.38;4956359;28;20034;-76
2021/08/26 02:26:03;;;;;;;5.70;3.67;;;;;;;14.75;66.64;97069.59;4940047;28;20038;-76
2021/08/26 02:28:29;;;;;;;6.07;4.20;;;;;;;14.74;66.47;97052.28;4940687;28;20038;-76
2021/08/26 02:30:54;;;;;;;6.40;3.88;;;;;;;14.74;66.70;97056.75;4939974;28;20027;-76
2021/08/26 02:33:19;;;;;;;5.90;4.22;;;;;;;14.67;66.67;97057.06;4936913;29;20051;-75
2021/08/26 02:35:45;;;;;;;8.60;4.50;;;;;;;14.61;66.91;97058.16;4921279;29;20053;-76
2021/08/26 02:38:10;;;;;;;7.90;3.83;;;;;;;14.63;67.19;97050.78;4936763;29;20479;-76
2021/08/26 02:40:36;;;;;;;7.53;4.50;;;;;;;14.64;67.55;97049.75;4924476;28;20113;-76
2021/08/26 02:43:01;;;;;;;7.05;4.43;;;;;;;14.62;67.41;97059.72;4950157;28;20031;-75
2021/08/26 02:45:29;;;;;;;6.50;4.65;;;;;;;14.56;67.11;97050.28;4985134;28;20039;-76
2021/08/26 02:47:54;;;;;;;5.15;3.67;;;;;;;14.56;67.13;97045.81;4955691;28;20027;-76
2021/08/26 02:50:19;;;;;;;5.78;4.13;;;;;;;14.60;67.64;97046.13;4955584;28;20053;-75
2021/08/26 02:52:45;;;;;;;5.55;3.95;;;;;;;14.63;67.47;97040.31;4955713;28;20513;-75
2021/08/26 02:55:10;;;;;;;6.45;3.90;;;;;;;14.67;67.15;97037.91;4939991;28;20030;-75
2021/08/26 02:57:35;;;;;;;7.25;4.15;;;;;;;14.57;67.64;97044.78;4934808;28;20031;-75
2021/08/26 03:00:01;;;;;;;7.28;4.15;;;;;;;14.59;67.56;97037.44;4955462;28;20094;-76
2021/08/26 03:02:29;;;;;;;5.55;4.30;;;;;;;14.46;67.60;97045.91;4955388;28;20069;-75
2021/08/26 03:04:57;;;;;;;6.63;4.75;;;;;;;14.54;67.76;97036.69;4939642;28;20034;-76
2021/08/26 03:07:22;;;;;;;7.47;4.50;;;;;;;14.59;67.94;97047.16;4955259;28;20489;-75
2021/08/26 03:09:47;;;;;;;6.85;4.82;;;;;;;14.53;68.38;97045.59;4919382;29;20027;-76
2021/08/26 03:12:13;;;;;;;4.93;3.72;;;;;;;14.54;67.89;97031.44;4936326;29;20054;-75
2021/08/26 03:14:38;;;;;;;7.78;5.00;;;;;;;14.52;68.86;97038.81;4936910;28;20366;-76
2021/08/26 03:17:04;;;;;;;6.97;5.10;;;;;;;14.53;69.04;97035.09;4955016;28;20366;-75
2021/08/26 03:19:29;;;;;;;9.57;5.72;;;;;;;14.54;68.60;97026.22;4954668;28;20160;-76
2021/08/26 03:21:56;;;;;;;10.05;6.53;;;;;;;14.57;69.52;97031.69;4955046;28;20062;-76
2021/08/26 03:24:22;;;;;;;8.23;5.97;;;;;;;14.55;69.35;97027.78;4939651;28;20030;-76
2021/08/26 03:26:47;;;;;;;9.40;6.18;;;;;;;14.55;69.36;97033.03;4954907;28;20104;-76
2021/08/26 03:29:12;;;;;;;9.60;6.38;;;;;;;14.56;69.60;97024.88;4955009;28;20070;-76
2021/08/26 03:31:38;;;;;;;7.80;5.47;;;;;;;14.64;69.21;97030.63;4938416;28;20050;-75
2021/08/26 03:34:03;;;;;;;8.55;5.75;;;;;;;14.72;69.00;97033.44;4954665;28;20031;-76
2021/08/26 03:36:29;;;;;;;8.88;6.07;;;;;;;14.74;69.10;97031.31;4938943;28;20081;-75
2021/08/26 03:38:55;;;;;;;10.52;5.72;;;;;;;14.75;69.13;97032.09;4923157;28;20477;-76
2021/08/26 03:41:21;;;;;;;6.90;5.53;;;;;;;14.75;69.14;97038.13;4939020;28;20478;-76
2021/08/26 03:43:48;;;;;;;7.30;5.07;;;;;;;14.65;69.15;97035.59;4938939;28;20027;-76
2021/08/26 03:46:13;;;;;;;6.50;5.35;;;;;;;14.73;68.81;97037.59;4954600;28;20053;-76
2021/08/26 03:48:39;;;;;;;7.07;4.60;;;;;;;14.75;68.86;97043.38;4954662;28;20034;-75
2021/08/26 03:51:04;;;;;;;7.38;5.20;;;;;;;14.70;68.82;97035.56;4954313;28;20101;-75
2021/08/26 03:53:29;;;;;;;8.88;5.38;;;;;;;14.74;68.66;97035.78;4935258;29;20035;-75
2021/08/26 03:55:55;;;;;;;8.98;6.53;;;;;;;14.85;68.19;97032.00;4935335;29;20031;-76
2021/08/26 03:58:20;;;;;;;9.32;7.13;;;;;;;14.85;68.19;97023.38;4919670;29;20046;-76
2021/08/26 04:00:45;;;;;;;10.18;6.60;;;;;;;14.97;67.86;97034.28;4952375;28;20062;-75
2021/08/26 04:03:11;;;;;;;8.45;5.63;;;;;;;14.97;67.98;97035.06;4954249;28;20093;-76
2021/08/26 04:05:36;;;;;;;8.65;5.82;;;;;;;14.96;68.29;97040.59;4971842;28;20035;-76
2021/08/26 04:08:02;;;;;;;9.82;6.05;;;;;;;14.87;68.69;97026.50;4966255;28;20042;-75
2021/08/26 04:10:27;;;;;;;7.95;5.60;;;;;;;14.87;68.76;97032.50;4954311;28;20043;-75
2021/08/26 04:12:55;;;;;;;8.60;5.38;;;;;;;14.84;68.72;97016.56;4938257;28;20034;-75
2021/08/26 04:15:20;;;;;;;7.93;6.05;;;;;;;14.90;68.75;97024.09;4954606;28;20039;-75
2021/08/26 04:17:47;;;;;;;7.13;5.07;;;;;;;14.90;68.04;97020.72;4939096;28;20058;-75
2021/08/26 04:20:13;;;;;;;6.25;4.57;;;;;;;14.92;67.63;97023.84;4936810;28;20038;-75
2021/08/26 04:22:38;;;;;;;6.47;4.53;;;;;;;14.88;67.44;97012.34;4949579;28;20038;-75
2021/08/26 04:25:04;;;;;;;6.05;4.15;;;;;;;14.85;67.04;97010.28;4938055;28;20031;-75
2021/08/26 04:27:30;;;;;;;6.00;5.05;;;;;;;14.90;67.17;97015.47;4922618;28;20037;-75
2021/08/26 04:29:55;;;;;;;6.78;4.97;;;;;;;14.92;67.58;97005.47;4938112;28;20035;-75
2021/08/26 04:32:20;;;;;;;7.80;5.10;;;;;;;14.86;67.93;97006.59;4937954;28;20423;-75
2021/08/26 04:34:46;;;;;;;6.35;5.38;;;;;;;14.80;68.36;97011.09;4971141;28;20739;-75
2021/08/26 04:37:11;;;;;;;9.15;5.45;;;;;;;14.82;67.89;97013.44;4938151;28;20125;-75
2021/08/26 04:39:36;;;;;;;8.02;5.38;;;;;;;14.88;68.27;97010.50;4922144;28;20034;-75
2021/08/26 04:42:02;;;;;;;7.88;5.55;;;;;;;14.86;68.51;97011.84;4954131;28;20082;-75
2021/08/26 04:44:28;;;;;;;9.65;6.28;;;;;;;14.78;68.86;97008.75;4954043;28;20031;-75
2021/08/26 04:46:53;;;;;;;8.70;5.32;;;;;;;14.88;68.66;96994.78;4971300;28;20035;-75
2021/08/26 04:49:19;;;;;;;9.48;5.93;;;;;;;14.96;68.34;97003.88;4953723;28;20056;-75
2021/08/26 04:51:44;;;;;;;6.47;4.93;;;;;;;15.01;68.30;96998.59;4922751;28;20031;-76
2021/08/26 04:54:09;;;;;;;7.75;6.20;;;;;;;15.06;68.41;97003.00;4970674;28;20430;-75
2021/08/26 04:56:35;;;;;;;8.23;6.38;;;;;;;15.11;68.33;97001.13;4954101;28;20252;-75
2021/08/26 04:59:00;;;;;;;8.50;5.75;;;;;;;15.09;68.49;96995.34;4971002;28;20559;-75
2021/08/26 05:01:26;;;;;;;10.38;6.47;;;;;;;15.09;68.04;97005.84;4952925;28;20424;-75
2021/08/26 05:03:51;;;;;;;9.15;5.78;;;;;;;15.08;68.18;97001.66;4936869;28;20525;-75
2021/08/26 05:06:16;;;;;;;7.22;5.38;;;;;;;15.10;67.53;97004.03;4954990;28;20086;-75
2021/08/26 05:08:42;;;;;;;9.07;6.57;;;;;;;15.04;67.54;96986.75;4962928;28;20043;-75
2021/08/26 05:11:07;;;;;;;8.48;5.28;;;;;;;15.15;67.87;97004.75;4952266;28;20030;-75
2021/08/26 05:13:33;;;;;;;7.72;5.88;;;;;;;15.24;67.76;97014.63;4953048;28;20049;-75
2021/08/26 05:15:58;;;;;;;6.65;5.72;;;;;;;15.29;67.60;97011.97;4952825;28;20479;-75
2021/08/26 05:18:23;;;;;;;7.70;5.35;;;;;;;15.38;67.52;97015.53;4970249;28;20038;-76
2021/08/26 05:20:49;;;;;;;7.65;5.18;;;;;;;15.39;67.89;97017.09;4938684;28;20113;-75
2021/08/26 05:23:14;;;;;;;8.23;6.25;;;;;;;15.39;67.22;97009.22;4956726;28;20049;-75
2021/08/26 05:25:40;;;;;;;10.57;6.22;;;;;;;15.39;66.97;97017.09;4940601;28;20042;-75
2021/08/26 05:28:05;;;;;;;9.55;6.60;;;;;;;15.39;66.78;97022.34;4940301;28;20042;-75
2021/08/26 05:30:30;;;;;;;8.73;7.10;;;;;;;15.39;66.66;97024.97;4956231;28;20137;-75
2021/08/26 05:32:57;;;;;;;10.25;6.50;;;;;;;15.36;67.20;97015.03;4956312;28;20042;-75
2021/08/26 05:35:23;;;;;;;9.50;7.03;;;;;;;15.43;66.76;97020.72;4974711;28;20031;-75
2021/08/26 05:37:48;;;;;;;11.93;7.00;;;;;;;15.30;66.81;97001.19;4941703;28;20042;-75
2021/08/26 05:40:13;;;;;;;9.90;7.03;;;;;;;15.34;66.90;97017.16;4956770;28;20038;-76
2021/08/26 05:42:39;;;;;;;9.38;6.93;;;;;;;15.34;66.99;97022.41;4941068;28;20155;-75
2021/08/26 05:45:05;;;;;;;9.60;7.53;;;;;;;15.31;67.03;97023.72;4957226;28;20038;-75
2021/08/26 05:47:31;;;;;;;8.57;7.07;;;;;;;15.31;66.86;97018.47;4941028;28;20050;-75
2021/08/26 05:49:56;;;;;;;8.15;6.88;;;;;;;15.32;67.37;97027.16;4940521;28;20043;-75
2021/08/26 05:52:22;;;;;;;9.25;6.97;;;;;;;15.32;67.46;97019.28;4940736;28;20035;-75
2021/08/26 05:54:47;;;;;;;9.77;7.80;;;;;;;15.40;67.61;97025.75;4956928;28;20031;-75
2021/08/26 05:57:13;;;;;;;11.40;8.27;;;;;;;15.44;68.11;97022.28;4974084;28;20105;-75
2021/08/26 05:59:38;;;;;;;10.00;7.93;;;;;;;15.48;67.96;97025.91;4940739;28;20134;-75
2021/08/26 06:02:09;;;;;;;11.13;8.52;;;;;;;15.47;67.90;97028.81;4956508;28;20405;-78
2021/08/26 06:04:39;;;;;;;8.98;7.88;;;;;;;15.44;67.83;97019.66;4925731;28;20101;-75
2021/08/26 06:07:05;;;;;;;12.77;8.20;;;;;;;15.54;68.30;97027.44;4919929;29;20110;-75
2021/08/26 06:09:30;;;;;;;11.40;8.40;;;;;;;15.54;68.40;97027.44;4935597;29;20110;-75
2021/08/26 06:11:55;;;;;;;10.55;8.25;;;;;;;15.49;68.76;97022.22;4935529;29;20038;-75
2021/08/26 06:14:21;;;;;;;9.75;7.93;;;;;;;15.54;68.74;97030.03;4904034;29;20038;-75
2021/08/26 06:16:46;;;;;;;12.52;8.88;;;;;;;15.57;68.83;97030.53;4937335;28;20043;-75
2021/08/26 06:19:11;;;;;;;14.82;8.82;;;;;;;15.61;68.98;97026.28;4954238;28;20045;-75
2021/08/26 06:21:37;;;;;;;13.20;9.27;;;;;;;15.56;69.17;97029.78;4964383;28;20427;-75
2021/08/26 06:24:06;;;;;;;14.45;10.75;;;;;;;15.55;69.70;97026.34;4938054;28;20022;-75
2021/08/26 06:26:33;;;;;;;19.50;9.90;;;;;;;15.61;69.27;97034.16;4952708;28;20042;-76
2021/08/26 06:28:58;;;;;;;12.23;9.57;;;;;;;15.60;69.45;97030.00;4913926;29;20127;-76
2021/08/26 06:31:23;;;;;;;12.60;9.57;;;;;;;15.62;70.05;97035.75;4958576;28;20106;-75
2021/08/26 06:33:49;;;;;;;13.98;9.48;;;;;;;15.61;69.97;97036.78;4937841;28;20038;-75
2021/08/26 06:36:14;;;;;;;12.93;10.13;;;;;;;15.51;70.09;97027.22;4954008;28;20039;-75
2021/08/26 06:38:39;;;;;;;11.80;9.50;;;;;;;15.47;70.01;97029.59;4954062;28;20110;-75
2021/08/26 06:41:07;;;;;;;15.20;10.43;;;;;;;15.44;70.49;97027.53;4918802;29;20023;-76
2021/08/26 06:43:32;;;;;;;13.02;9.55;;;;;;;15.55;70.41;97028.97;4934857;29;20037;-75
2021/08/26 06:45:58;;;;;;;11.13;9.60;;;;;;;15.60;70.38;97030.00;4934879;29;20035;-75
2021/08/26 06:48:23;;;;;;;13.25;9.48;;;;;;;15.68;70.37;97018.88;4934868;29;20055;-75
2021/08/26 06:50:49;;;;;;;12.48;10.02;;;;;;;15.72;70.46;97023.25;4934259;29;20070;-75
2021/08/26 06:53:14;;;;;;;12.00;10.43;;;;;;;15.78;70.60;97020.59;4950588;28;20046;-76
2021/08/26 06:55:40;;;;;;;11.23;9.40;;;;;;;15.78;70.11;97021.41;4937215;28;20041;-76
2021/08/26 06:58:05;;;;;;;12.02;10.57;;;;;;;15.77;70.36;97009.34;4938859;28;20066;-76
2021/08/26 07:00:32;;;;;;;14.50;11.90;;;;;;;15.80;70.38;97019.28;4939699;28;20069;-78
2021/08/26 07:02:57;;;;;;;16.02;11.50;;;;;;;15.77;70.54;97019.84;4939682;28;20027;-76
2021/08/26 07:05:23;;;;;;;12.25;10.02;;;;;;;15.74;70.17;97030.88;4939722;28;20619;-75
2021/08/26 07:07:48;;;;;;;14.13;10.98;;;;;;;15.73;70.52;97027.47;4955342;28;20151;-75
2021/08/26 07:10:14;;;;;;;14.65;11.23;;;;;;;15.70;70.55;97035.13;4953772;28;20042;-75
2021/08/26 07:12:39;;;;;;;14.90;11.00;;;;;;;15.74;70.51;97030.88;4935392;29;20043;-75
2021/08/26 07:15:05;;;;;;;14.57;11.80;;;;;;;15.78;70.73;97031.09;4929998;28;20109;-75
2021/08/26 07:17:31;;;;;;;14.98;11.80;;;;;;;15.83;70.41;97036.31;4923180;28;20026;-76
2021/08/26 07:20:00;;;;;;;16.58;12.43;;;;;;;15.85;70.40;97027.09;4970916;28;20035;-75
2021/08/26 07:22:26;;;;;;;14.50;11.65;;;;;;;15.97;70.43;97025.88;4972657;28;20378;-76
2021/08/26 07:24:51;;;;;;;16.27;11.48;;;;;;;15.94;70.11;97024.63;4972468;28;20039;-75
2021/08/26 07:27:17;;;;;;;15.23;12.18;;;;;;;15.81;70.10;97026.06;4972602;28;20110;-76
2021/08/26 07:29:42;;;;;;;16.52;12.20;;;;;;;15.85;70.08;97027.09;4942928;28;20476;-76
2021/08/26 07:32:08;;;;;;;14.13;11.82;;;;;;;15.93;70.53;97038.03;4954843;28;20113;-75
2021/08/26 07:34:33;;;;;;;14.40;12.02;;;;;;;15.94;70.73;97037.75;4954283;28;20533;-75
2021/08/26 07:36:58;;;;;;;15.90;12.13;;;;;;;16.03;70.35;97027.38;4955401;28;20049;-75
2021/08/26 07:39:24;;;;;;;14.70;11.75;;;;;;;15.91;70.32;97033.81;4973480;28;20037;-75
2021/08/26 07:41:49;;;;;;;14.30;11.05;;;;;;;15.90;70.74;97034.91;4950816;28;20041;-75
2021/08/26 07:44:14;;;;;;;17.67;13.00;;;;;;;15.81;70.70;97031.31;4956034;28;20494;-75
2021/08/26 07:46:40;;;;;;;15.52;11.43;;;;;;;15.85;71.24;97034.16;4954157;28;20038;-75
2021/08/26 07:49:06;;;;;;;15.52;11.80;;;;;;;15.87;71.29;97039.94;4948558;28;20073;-75
2021/08/26 07:51:32;;;;;;;15.95;12.88;;;;;;;15.81;71.18;97041.06;4937944;28;20047;-76
2021/08/26 07:54:00;;;;;;;15.15;11.88;;;;;;;15.85;70.80;97034.97;4922617;28;20045;-75
2021/08/26 07:56:25;;;;;;;15.07;11.75;;;;;;;15.90;71.14;97044.59;4968347;28;20125;-76
2021/08/26 07:58:51;;;;;;;15.05;11.75;;;;;;;15.83;71.12;97031.81;4953109;28;20037;-76
2021/08/26 08:01:16;;;;;;;15.93;13.02;;;;;;;15.84;71.04;97048.38;4953201;28;20449;-75
2021/08/26 08:03:41;;;;;;;15.90;12.35;;;;;;;15.84;71.24;97051.00;4964740;28;20057;-76
2021/08/26 08:06:07;;;;;;;14.80;11.73;;;;;;;15.84;71.58;97062.28;4930719;28;20050;-75
2021/08/26 08:08:32;;;;;;;16.98;12.70;;;;;;;15.85;71.64;97068.31;4970627;28;20113;-75
2021/08/26 08:10:59;;;;;;;12.98;10.93;;;;;;;15.89;71.45;97054.34;4947814;28;20636;-76
2021/08/26 08:13:24;;;;;;;12.95;10.90;;;;;;;15.94;71.38;97050.88;4934410;29;20384;-75
2021/08/26 08:15:50;;;;;;;16.42;13.13;;;;;;;15.86;71.96;97054.91;4902977;29;20034;-75
2021/08/26 08:18:15;;;;;;;16.42;12.75;;;;;;;15.84;72.07;97067.53;4934373;28;20047;-76
2021/08/26 08:20:41;;;;;;;13.85;11.18;;;;;;;15.98;71.77;97066.84;4949913;28;20031;-75
2021/08/26 08:23:07;;;;;;;10.80;9.18;;;;;;;16.04;71.26;97052.56;4934600;29;20062;-75
2021/08/26 08:25:32;;;;;;;9.25;7.00;;;;;;;16.07;71.22;97054.63;4932211;28;20080;-75
2021/08/26 08:27:58;;;;;;;9.68;8.13;;;;;;;16.10;71.62;97049.59;4951573;28;20038;-76
2021/08/26 08:30:26;;;;;;;8.23;7.07;;;;;;;16.19;71.21;97057.63;4952758;28;20069;-76
2021/08/26 08:32:54;;;;;;;9.70;6.25;;;;;;;16.28;71.38;97057.81;4953640;28;20735;-76
2021/08/26 08:35:20;;;;;;;7.18;5.35;;;;;;;16.34;70.82;97050.63;4969188;28;20037;-76
2021/08/26 08:37:45;;;;;;;8.07;6.10;;;;;;;16.51;71.06;97056.16;4934463;29;20042;-76
2021/08/26 08:40:11;;;;;;;8.02;5.20;;;;;;;16.64;70.82;97054.66;4932518;28;20422;-76
2021/08/26 08:42:37;;;;;;;7.32;5.93;;;;;;;16.75;70.85;97047.38;4934563;29;20414;-76
2021/08/26 08:45:02;;;;;;;7.22;5.10;;;;;;;16.92;70.26;97046.88;4933978;29;20077;-76
2021/08/26 08:47:32;;;;;;;5.82;4.80;;;;;;;16.98;69.96;97050.97;4918197;29;20061;-75
2021/08/26 08:49:58;;;;;;;6.60;5.45;;;;;;;17.27;69.71;97063.13;4939624;28;20379;-75
2021/08/26 08:52:24;;;;;;;5.63;4.00;;;;;;;17.32;69.08;97053.28;4947011;28;20054;-76
2021/08/26 08:54:52;;;;;;;5.88;4.07;;;;;;;17.45;68.56;97061.50;4937259;28;20041;-75
2021/08/26 08:57:17;;;;;;;6.47;4.25;;;;;;;17.58;69.03;97055.44;4956561;28;20133;-76
2021/08/26 08:59:43;;;;;;;5.03;3.85;;;;;;;17.79;68.39;97053.22;4956275;28;20038;-76
2021/08/26 09:02:12;;;;;;;5.20;4.28;;;;;;;17.97;68.26;97054.19;4941052;28;20043;-75
2021/08/26 09:04:56;;;;;;;4.10;3.70;;;;;;;18.05;66.57;97058.78;4940893;28;20035;-75
2021/08/26 09:07:24;;;;;;;5.93;4.15;;;;;;;18.25;66.17;97059.41;4944244;28;20093;-75
2021/08/26 09:09:52;;;;;;;5.20;4.40;;;;;;;18.29;66.36;97055.88;4947270;28;20106;-75
2021/08/26 09:12:17;;;;;;;5.45;3.50;;;;;;;18.36;66.91;97054.72;4949342;28;20054;-75
2021/08/26 09:14:42;;;;;;;4.68;4.00;;;;;;;18.36;66.18;97055.47;4956448;28;20038;-76
2021/08/26 09:17:16;;;;;;;4.28;3.47;;;;;;;18.13;66.23;97054.66;4973862;28;20478;-75
2021/08/26 09:19:43;;;;;;;4.63;3.93;;;;;;;18.25;66.19;97051.50;4940181;28;20031;-75
2021/08/26 09:22:09;;;;;;;5.03;4.13;;;;;;;18.23;66.69;97056.28;4940299;28;20278;-76
2021/08/26 09:24:52;;;;;;;5.20;3.63;;;;;;;18.00;66.49;97058.88;4940982;28;20785;-75
2021/08/26 09:27:36;;;;;;;6.05;4.85;;;;;;;18.07;67.18;97048.72;4933076;28;20043;-75
2021/08/26 09:30:04;;;;;;;4.63;3.97;;;;;;;18.35;66.40;97048.63;4955570;28;20572;-75
2021/08/26 09:32:34;;;;;;;5.60;4.93;;;;;;;18.44;66.13;97048.72;4956625;28;20417;-75
2021/08/26 09:35:13;;;;;;;5.47;4.47;;;;;;;18.38;66.67;97050.69;4956453;28;20042;-75
2021/08/26 09:37:53;;;;;;;6.00;4.18;;;;;;;18.48;65.06;97047.81;4956131;28;20030;-75
2021/08/26 09:40:27;;;;;;;5.22;3.90;;;;;;;18.56;65.19;97053.47;4933673;28;20429;-75
2021/08/26 09:43:03;;;;;;;6.82;4.30;;;;;;;18.47;64.06;97046.28;4940454;28;20355;-76
2021/08/26 09:45:31;;;;;;;5.53;4.65;;;;;;;18.69;64.66;97052.63;4936783;29;20057;-76
2021/08/26 09:48:02;;;;;;;5.47;3.80;;;;;;;18.72;65.35;97041.47;4921287;29;20833;-75
2021/08/26 09:50:44;;;;;;;4.60;3.25;;;;;;;18.82;64.62;97041.28;4917372;28;20069;-75
2021/08/26 09:53:12;;;;;;;5.25;3.75;;;;;;;18.99;64.48;97047.75;4952547;28;20035;-75
2021/08/26 09:56:01;;;;;;;4.90;3.25;;;;;;;19.22;64.14;97048.47;4954018;28;20069;-75
2021/08/26 09:58:34;;;;;;;3.95;3.35;;;;;;;19.77;60.06;97045.44;4954237;28;20063;-75
2021/08/26 10:01:06;;;;;;;4.28;3.33;;;;;;;20.26;59.76;97041.97;4952934;28;20030;-75
2021/08/26 10:03:32;;;;;;;4.00;2.88;;;;;;;20.82;58.35;97048.19;4937703;28;20485;-75
2021/08/26 10:05:58;;;;;;;2.58;2.20;;;;;;;20.89;57.97;97042.41;4953384;28;20035;-75
2021/08/26 10:08:24;;;;;;;4.13;2.45;;;;;;;20.81;58.40;97036.03;4937718;28;20034;-75
2021/08/26 10:10:51;;;;;;;3.97;2.70;;;;;;;21.04;59.19;97041.91;4937301;28;20037;-76
2021/08/26 10:13:18;;;;;;;3.55;2.20;;;;;;;21.15;55.44;97045.00;4937738;28;20089;-76
2021/08/26 10:15:44;;;;;;;4.20;2.60;;;;;;;20.96;55.17;97037.41;4938079;28;20038;-75
2021/08/26 10:18:10;;;;;;;3.50;2.65;;;;;;;20.79;56.39;97037.44;4953219;28;20039;-76
2021/08/26 10:20:35;;;;;;;4.22;2.20;;;;;;;20.63;55.96;97034.50;4952265;28;20034;-75
2021/08/26 10:23:02;;;;;;;4.10;2.65;;;;;;;20.38;56.54;97034.19;4953258;28;20030;-75
2021/08/26 10:25:27;;;;;;;2.63;2.42;;;;;;;19.92;59.78;97052.16;4953299;28;20070;-76
2021/08/26 10:27:56;;;;;;;3.97;2.88;;;;;;;19.69;58.94;97053.31;4953565;28;20556;-76
2021/08/26 10:30:35;;;;;;;3.90;2.88;;;;;;;19.28;57.88;97060.47;4936306;28;20462;-76
2021/08/26 10:33:14;;;;;;;5.55;3.47;;;;;;;19.18;59.32;97058.84;4921664;28;20505;-76
2021/08/26 10:35:57;;;;;;;5.88;3.38;;;;;;;19.77;54.79;97052.59;4970741;28;20041;-76
2021/08/26 10:38:25;;;;;;;5.90;3.33;;;;;;;20.19;53.97;97047.69;4970320;28;20050;-75
2021/08/26 10:40:51;;;;;;;6.85;3.47;;;;;;;20.34;53.64;97041.16;4936507;28;20042;-76
2021/08/26 10:43:37;;;;;;;4.80;3.75;;;;;;;20.54;53.67;97029.19;4970358;28;20231;-75
2021/08/26 10:46:05;;;;;;;6.05;3.10;;;;;;;21.47;52.03;97037.56;4953203;28;20030;-75
2021/08/26 10:48:30;;;;;;;4.68;3.50;;;;;;;21.63;53.32;97046.53;4970052;28;20105;-76
2021/08/26 10:51:16;;;;;;;4.70;3.00;;;;;;;22.15;49.74;97042.78;4951887;28;20185;-76
2021/08/26 10:53:45;;;;;;;4.68;3.15;;;;;;;22.56;47.95;97041.25;4953150;28;20030;-75
2021/08/26 10:56:29;;;;;;;4.32;3.05;;;;;;;22.63;48.48;97038.84;4947866;29;20401;-75
2021/08/26 10:59:02;;;;;;;4.13;3.08;;;;;;;22.96;49.28;97030.13;4925597;28;20177;-75
2021/08/26 11:01:28;;;;;;;5.63;2.92;;;;;;;23.15;47.77;97042.91;4913831;28;20035;-75
2021/08/26 11:04:18;;;;;;;5.78;2.85;;;;;;;23.30;46.75;97035.38;4969440;28;20486;-76
2021/08/26 11:06:44;;;;;;;3.85;2.63;;;;;;;22.62;46.15;97039.97;4949240;28;20047;-76
2021/08/26 11:09:12;;;;;;;6.22;2.97;;;;;;;22.05;46.34;97043.97;4935397;28;20030;-76
2021/08/26 11:11:40;;;;;;;3.05;2.35;;;;;;;21.59;46.97;97028.94;4934848;28;20058;-76
2021/08/26 11:14:06;;;;;;;4.97;2.88;;;;;;;21.13;49.34;97032.06;4952592;28;20031;-76
2021/08/26 11:16:37;;;;;;;5.63;2.78;;;;;;;20.72;49.45;97037.91;4952293;28;20089;-76
2021/08/26 11:19:05;;;;;;;4.25;2.70;;;;;;;21.39;48.25;97033.06;4945805;28;20106;-76
2021/08/26 11:24:09;;;;;;;4.65;2.65;;;;;;;21.77;47.63;97027.75;4951565;28;20434;-76
2021/08/26 11:26:57;;;;;;;3.80;2.60;;;;;;;22.18;45.68;97026.25;4936304;28;20169;-76
2021/08/26 11:29:23;;;;;;;4.22;2.88;;;;;;;22.55;46.56;97030.97;4950516;28;20062;-77
2021/08/26 11:31:55;;;;;;;3.45;2.60;;;;;;;22.66;44.14;97023.41;4936574;28;20520;-76
2021/08/26 11:34:32;;;;;;;4.25;2.95;;;;;;;22.67;45.93;97028.38;4936053;28;20093;-77
2021/08/26 11:37:03;;;;;;;5.25;2.55;;;;;;;22.40;45.43;97021.75;4936492;28;20130;-76